This is the latest recevied weather packets stored in our database for station/object VK3ABC-13. If no packets are shown the sender has not sent any weather packets the latest 10 day(s).
| Time | Temp. | Humidity | Pressure | Rain* | Wind** | Luminosity | Snow |
|---|---|---|---|---|---|---|---|
| 1777948212 | 16.67° C | 67% | 1017 hPa | 0 mm | - | 309 W/m² | - |
| 1777944011 | 15.56° C | 72% | 1017.3 hPa | 0 mm | - | 141 W/m² | - |
| 1777942510 | 15.56° C | 74% | 1017.2 hPa | 0 mm | - | 214 W/m² | - |
| 1777941910 | 15° C | 75% | 1017.1 hPa | 0 mm | - | 153 W/m² | - |
| 1777941310 | 15° C | 75% | 1017 hPa | 0 mm | - | 171 W/m² | - |
| 1777935910 | 14.44° C | 81% | 1016.1 hPa | 0 mm | - | 381 W/m² | - |
| 1777935310 | 14.44° C | 81% | 1016.1 hPa | 0 mm | - | 149 W/m² | - |
| 1777934710 | 14.44° C | 82% | 1016 hPa | 0 mm | - | 102 W/m² | - |
| 1777934412 | 14.44° C | 83% | 1016 hPa | 0 mm | - | 74 W/m² | - |
| 1777933510 | 13.89° C | 84% | 1015.6 hPa | 0 mm | - | 120 W/m² | - |
| 1777933211 | 13.89° C | 84% | 1015.6 hPa | 0 mm | - | 114 W/m² | - |
| 1777932310 | 13.89° C | 84% | 1015.2 hPa | 0 mm | - | 56 W/m² | - |
| 1777931710 | 13.33° C | 85% | 1015.1 hPa | 0 mm | - | 11 W/m² | - |
| 1777931411 | 13.33° C | 85% | 1015 hPa | 0 mm | - | 44 W/m² | - |
| 1777931110 | 13.33° C | 85% | 1014.9 hPa | 0 mm | - | 19 W/m² | - |
| 1777929310 | 13.33° C | 85% | 1014.3 hPa | 0 mm | - | 9 W/m² | - |
| 1777927812 | 13.89° C | 84% | 1014.1 hPa | 0 mm | - | 0 W/m² | - |
| 1777927510 | 13.33° C | 84% | 1014 hPa | 0 mm | - | 0 W/m² | - |
| 1777925411 | 13.33° C | 83% | 1013.3 hPa | 0 mm | - | 0 W/m² | - |
| 1777924510 | 13.89° C | 82% | 1013.1 hPa | 0 mm | - | 0 W/m² | - |
| 1777923011 | 13.89° C | 82% | 1013 hPa | 0 mm | - | 0 W/m² | - |
| 1777921510 | 13.89° C | 81% | 1012.6 hPa | 0 mm | - | 0 W/m² | - |
| 1777920011 | 13.89° C | 81% | 1012.3 hPa | 0 mm | - | 0 W/m² | - |
| 1777919710 | 13.89° C | 81% | 1012.3 hPa | 0 mm | - | 0 W/m² | - |
| 1777919110 | 13.89° C | 80% | 1012.1 hPa | 0 mm | - | 0 W/m² | - |
* Rain latest hour (hover to see other rain measurements)
** Current wind speed in m/s (hover to see current wind gust speed)